createdAt,value
2022-08-28T00:00:40.258Z,99691.09
2022-08-28T00:03:10.622Z,99700.88
2022-08-28T00:05:39.931Z,99701.63
2022-08-28T00:08:10.004Z,99689.16
2022-08-28T00:10:40.080Z,99691.53
2022-08-28T00:13:18.607Z,99696.28
2022-08-28T00:15:49.059Z,99694.75
2022-08-28T00:18:17.875Z,99696.84
2022-08-28T00:20:46.603Z,99691.81
2022-08-28T00:23:15.019Z,99684.81
2022-08-28T00:25:42.832Z,99686.78
2022-08-28T00:28:21.029Z,99684.47
2022-08-28T00:30:56.156Z,99677.91
2022-08-28T00:33:27.431Z,99679.56
2022-08-28T00:35:56.032Z,99677.28
2022-08-28T00:38:27.166Z,99672.53
2022-08-28T00:40:59.421Z,99675.28
2022-08-28T00:43:44.933Z,99675.41
2022-08-28T00:46:21.414Z,99682.84
2022-08-28T00:48:49.949Z,99675.53
2022-08-28T00:51:38.585Z,99673.69
2022-08-28T00:54:08.254Z,99672.59
2022-08-28T00:56:39.415Z,99662.06
2022-08-28T00:59:16.067Z,99666.03
2022-08-28T01:01:46.281Z,99673.94
2022-08-28T01:04:17.981Z,99666.94
2022-08-28T01:06:53.870Z,99668.59
2022-08-28T01:09:25.961Z,99655.34
2022-08-28T01:12:19.626Z,99668.25
2022-08-28T01:14:52.006Z,99663.22
2022-08-28T01:17:23.727Z,99671.13
2022-08-28T01:19:57.447Z,99676.59
2022-08-28T01:22:32.551Z,99677.81
2022-08-28T01:25:05.918Z,99675.09
2022-08-28T01:27:33.489Z,99679.34
2022-08-28T01:30:01.753Z,99681.75
2022-08-28T01:32:56.833Z,99683.75
2022-08-28T01:35:30.178Z,99684.19
2022-08-28T01:37:58.482Z,99690.84
2022-08-28T01:40:38.097Z,99679.16
2022-08-28T01:43:22.514Z,99692.41
2022-08-28T01:45:56.322Z,99700.31
2022-08-28T01:48:26.971Z,99696.03
2022-08-28T01:50:56.026Z,99690.84
2022-08-28T01:53:30.748Z,99687.69
2022-08-28T01:56:05.293Z,99693.91
2022-08-28T01:58:37.955Z,99687.81
2022-08-28T02:01:17.075Z,99700.41
2022-08-28T02:03:44.801Z,99691.09
2022-08-28T02:06:16.564Z,99691.69
2022-08-28T02:08:44.149Z,99698.03
2022-08-28T02:11:12.378Z,99698.91
2022-08-28T02:13:40.794Z,99691.59
2022-08-28T02:16:11.033Z,99690.06
2022-08-28T02:18:39.096Z,99688.50
2022-08-28T02:21:09.259Z,99690.94
2022-08-28T02:23:40.244Z,99692.16
2022-08-28T02:26:09.822Z,99687.88
2022-08-28T02:28:38.034Z,99697.28
2022-08-28T02:31:09.447Z,99697.63
2022-08-28T02:33:44.309Z,99686.34
2022-08-28T02:36:15.096Z,99693.47
2022-08-28T02:38:45.444Z,99691.19
2022-08-28T02:41:13.947Z,99694.34
2022-08-28T02:43:41.482Z,99690.19
2022-08-28T02:46:10.143Z,99701.56
2022-08-28T02:48:40.575Z,99704.41
2022-08-28T02:51:13.387Z,99696.53
2022-08-28T02:53:42.352Z,99700.78
2022-08-28T02:56:10.503Z,99696.53
2022-08-28T02:58:39.468Z,99704.09
2022-08-28T03:01:11.377Z,99710.44
2022-08-28T03:03:41.401Z,99715.59
2022-08-28T03:06:12.605Z,99709.03
2022-08-28T03:08:42.230Z,99703.69
2022-08-28T03:11:10.484Z,99692.72
2022-08-28T03:13:38.870Z,99704.13
2022-08-28T03:16:07.074Z,99699.41
2022-08-28T03:18:35.142Z,99701.69
2022-08-28T03:21:03.179Z,99700.38
2022-08-28T03:23:31.818Z,99699.38
2022-08-28T03:26:07.113Z,99702.25
2022-08-28T03:28:39.426Z,99708.03
2022-08-28T03:31:10.101Z,99699.88
2022-08-28T03:33:38.114Z,99698.34
2022-08-28T03:36:12.953Z,99702.81
2022-08-28T03:38:41.969Z,99714.56
2022-08-28T03:41:14.616Z,99708.19
2022-08-28T03:43:43.072Z,99714.00
2022-08-28T03:46:17.656Z,99718.00
2022-08-28T03:48:46.102Z,99715.34
2022-08-28T03:51:18.755Z,99722.13
2022-08-28T03:53:49.419Z,99734.38
2022-08-28T03:56:23.959Z,99738.84
2022-08-28T03:58:57.470Z,99736.44
2022-08-28T04:01:25.574Z,99738.72
2022-08-28T04:03:53.432Z,99742.69
2022-08-28T04:06:21.143Z,99752.09
2022-08-28T04:08:48.755Z,99755.72
2022-08-28T04:11:17.385Z,99755.41
2022-08-28T04:13:45.438Z,99755.41
2022-08-28T04:16:16.749Z,99766.38
2022-08-28T04:18:45.750Z,99768.56
2022-08-28T04:21:20.112Z,99767.03
2022-08-28T04:23:48.488Z,99765.50
2022-08-28T04:26:19.940Z,99777.09
2022-08-28T04:28:50.135Z,99764.75
2022-08-28T04:31:32.380Z,99770.97
2022-08-28T04:34:02.491Z,99770.97
2022-08-28T04:36:30.918Z,99772.97
2022-08-28T04:38:59.370Z,99773.28
2022-08-28T04:41:28.502Z,99771.63
2022-08-28T04:43:57.941Z,99776.78
2022-08-28T04:46:26.036Z,99774.59
2022-08-28T04:48:53.915Z,99789.19
2022-08-28T04:51:22.481Z,99781.84
2022-08-28T04:53:50.034Z,99791.84
2022-08-28T04:56:18.261Z,99794.25
2022-08-28T04:58:46.189Z,99790.84
2022-08-28T05:01:26.960Z,99797.25
2022-08-28T05:04:02.256Z,99795.38
2022-08-28T05:06:32.181Z,99796.25
2022-08-28T05:09:03.586Z,99801.97
2022-08-28T05:11:34.484Z,99793.44
2022-08-28T05:14:11.595Z,99805.16
2022-08-28T05:16:50.228Z,99802.09
2022-08-28T05:19:20.275Z,99812.25
2022-08-28T05:21:48.725Z,99808.56
2022-08-28T05:24:16.730Z,99803.41
2022-08-28T05:26:48.334Z,99812.97
2022-08-28T05:29:16.999Z,99825.66
2022-08-28T05:31:45.274Z,99831.13
2022-08-28T05:34:15.205Z,99833.09
2022-08-28T05:36:42.800Z,99824.69
2022-08-28T05:39:12.498Z,99821.78
2022-08-28T05:41:43.291Z,99820.59
2022-08-28T05:44:14.866Z,99826.72
2022-08-28T05:46:47.463Z,99827.94
2022-08-28T05:49:17.915Z,99817.66
2022-08-28T05:51:46.824Z,99823.25
2022-08-28T05:54:15.739Z,99830.03
2022-08-28T05:56:45.213Z,99828.94
2022-08-28T05:59:13.909Z,99832.66
2022-08-28T06:01:46.425Z,99829.25
2022-08-28T06:04:25.452Z,99836.16
2022-08-28T06:06:54.106Z,99840.72
2022-08-28T06:09:30.205Z,99839.53
2022-08-28T06:12:02.855Z,99840.19
2022-08-28T06:14:31.971Z,99840.84
2022-08-28T06:17:00.985Z,99847.28
2022-08-28T06:19:31.823Z,99844.88
2022-08-28T06:22:07.501Z,99836.22
2022-08-28T06:24:36.265Z,99850.69
2022-08-28T06:27:04.569Z,99846.41
2022-08-28T06:29:32.099Z,99846.00
2022-08-28T06:32:03.424Z,99848.28
2022-08-28T06:34:31.535Z,99843.00
2022-08-28T06:36:59.025Z,99852.78
2022-08-28T06:39:27.022Z,99855.06
2022-08-28T06:41:54.838Z,99850.53
2022-08-28T06:44:22.783Z,99858.13
2022-08-28T06:46:53.619Z,99863.78
2022-08-28T06:49:22.333Z,99867.94
2022-08-28T06:51:50.534Z,99873.31
2022-08-28T06:54:22.935Z,99865.28
2022-08-28T06:56:52.346Z,99869.44
2022-08-28T06:59:19.934Z,99874.03
2022-08-28T07:01:47.576Z,99869.19
2022-08-28T07:04:15.478Z,99875.28
2022-08-28T07:06:54.295Z,99883.53
2022-08-28T07:09:24.490Z,99881.88
2022-08-28T07:11:52.537Z,99881.75
2022-08-28T07:14:20.092Z,99887.91
2022-08-28T07:16:47.991Z,99881.84
2022-08-28T07:19:16.207Z,99888.41
2022-08-28T07:21:46.484Z,99887.53
2022-08-28T07:24:16.914Z,99887.53
2022-08-28T07:26:47.018Z,99889.84
2022-08-28T07:29:15.443Z,99887.28
2022-08-28T07:31:53.153Z,99885.94
2022-08-28T07:34:26.827Z,99889.31
2022-08-28T07:36:56.293Z,99885.97
2022-08-28T07:39:24.470Z,99895.50
2022-08-28T07:41:51.946Z,99883.94
2022-08-28T07:44:38.175Z,99888.53
2022-08-28T07:47:08.817Z,99897.69
2022-08-28T07:49:36.620Z,99883.69
2022-08-28T07:52:09.224Z,99882.22
2022-08-28T07:54:40.369Z,99887.78
2022-08-28T07:57:10.331Z,99896.81
2022-08-28T07:59:38.937Z,99893.00
2022-08-28T08:02:07.028Z,99891.22
2022-08-28T08:04:35.250Z,99892.78
2022-08-28T08:07:04.738Z,99890.38
2022-08-28T08:09:36.866Z,99896.19
2022-08-28T08:12:05.654Z,99888.00
2022-08-28T08:14:33.261Z,99897.78
2022-08-28T08:17:04.013Z,99888.75
2022-08-28T08:19:36.460Z,99889.84
2022-08-28T08:22:04.250Z,99896.09
2022-08-28T08:24:32.138Z,99893.81
2022-08-28T08:27:02.340Z,99893.81
2022-08-28T08:29:35.808Z,99905.75
2022-08-28T08:32:08.939Z,99905.75
2022-08-28T08:34:42.275Z,99901.91
2022-08-28T08:37:11.784Z,99905.13
2022-08-28T08:39:41.663Z,99901.47
2022-08-28T08:42:31.979Z,99898.72
2022-08-28T08:45:05.780Z,99899.00
2022-08-28T08:47:52.430Z,99907.41
2022-08-28T08:50:35.407Z,99901.72
2022-08-28T08:53:21.803Z,99905.84
2022-08-28T08:55:53.571Z,99909.53
2022-08-28T08:58:53.154Z,99907.56
2022-08-28T09:01:29.169Z,99908.31
2022-08-28T09:04:08.537Z,99915.19
2022-08-28T09:07:09.171Z,99913.81
2022-08-28T09:09:52.855Z,99904.03
2022-08-28T09:12:30.371Z,99914.88
2022-08-28T09:15:05.529Z,99919.47
2022-08-28T09:17:42.578Z,99912.13
2022-08-28T09:20:14.993Z,99910.56
2022-08-28T09:22:48.669Z,99913.91
2022-08-28T09:26:12.556Z,99912.84
2022-08-28T09:28:41.880Z,99912.69
2022-08-28T09:31:30.060Z,99920.50
2022-08-28T09:34:38.119Z,99922.97
2022-08-28T09:37:08.479Z,99916.09
2022-08-28T09:39:36.417Z,99926.97
2022-08-28T09:42:41.593Z,99922.50
2022-08-28T09:45:20.596Z,99919.13
2022-08-28T09:47:58.374Z,99912.72
2022-08-28T09:50:31.336Z,99926.78
2022-08-28T09:53:09.473Z,99915.16
2022-08-28T09:56:11.101Z,99909.72
2022-08-28T09:58:59.811Z,99909.81
2022-08-28T10:01:34.931Z,99911.59
2022-08-28T10:04:44.472Z,99904.97
2022-08-28T10:07:37.593Z,99900.56
2022-08-28T10:10:21.430Z,99906.47
2022-08-28T10:13:06.993Z,99904.44
2022-08-28T10:15:56.164Z,99904.84
2022-08-28T10:18:51.781Z,99902.00
2022-08-28T10:21:40.457Z,99898.03
2022-08-28T10:24:26.999Z,99898.03
2022-08-28T10:27:15.658Z,99901.63
2022-08-28T10:30:12.445Z,99900.72
2022-08-28T10:33:00.016Z,99895.78
2022-08-28T10:36:03.702Z,99886.47
2022-08-28T10:38:49.501Z,99901.25
2022-08-28T10:41:41.238Z,99891.81
2022-08-28T10:44:14.000Z,99896.97
2022-08-28T10:46:55.656Z,99893.72
2022-08-28T10:49:29.038Z,99891.63
2022-08-28T10:52:15.653Z,99875.25
2022-08-28T10:55:12.652Z,99888.47
2022-08-28T10:58:02.607Z,99890.97
2022-08-28T11:00:30.610Z,99886.59
2022-08-28T11:03:22.235Z,99886.50
2022-08-28T11:06:08.388Z,99878.97
2022-08-28T11:08:38.445Z,99891.97
2022-08-28T11:11:13.884Z,99885.28
2022-08-28T11:13:55.022Z,99890.41
2022-08-28T11:16:30.170Z,99889.09
2022-08-28T11:19:11.228Z,99883.16
2022-08-28T11:21:52.530Z,99887.59
2022-08-28T11:24:32.602Z,99877.66
2022-08-28T11:27:16.976Z,99889.00
2022-08-28T11:30:06.558Z,99876.38
2022-08-28T11:32:56.143Z,99881.91
2022-08-28T11:35:41.332Z,99874.06
2022-08-28T11:38:10.283Z,99862.28
2022-08-28T11:40:56.810Z,99865.72
2022-08-28T11:43:24.302Z,99869.13
2022-08-28T11:45:55.045Z,99866.06
2022-08-28T11:48:35.477Z,99857.84
2022-08-28T11:51:13.741Z,99857.41
2022-08-28T11:54:11.672Z,99852.97
2022-08-28T11:56:48.034Z,99859.41
2022-08-28T11:59:59.823Z,99851.19
2022-08-28T12:02:39.399Z,99858.09
2022-08-28T12:05:33.161Z,99847.25
2022-08-28T12:08:03.919Z,99851.84
2022-08-28T12:10:32.538Z,99852.69
2022-08-28T12:13:09.705Z,99853.00
2022-08-28T12:15:42.727Z,99849.47
2022-08-28T12:18:13.262Z,99835.09
2022-08-28T12:21:04.353Z,99835.94
2022-08-28T12:24:09.007Z,99838.72
2022-08-28T12:26:44.682Z,99835.44
2022-08-28T12:29:45.008Z,99838.75
2022-08-28T12:32:41.205Z,99824.84
2022-08-28T12:35:26.105Z,99831.66
2022-08-28T12:37:53.807Z,99835.94
2022-08-28T12:40:37.852Z,99822.53
2022-08-28T12:43:10.923Z,99821.25
2022-08-28T12:45:58.589Z,99821.72
2022-08-28T12:48:34.456Z,99812.75
2022-08-28T12:51:14.713Z,99810.66
2022-08-28T12:53:54.026Z,99816.47
2022-08-28T12:56:24.616Z,99818.44
2022-08-28T12:58:52.959Z,99813.41
2022-08-28T13:01:33.117Z,99802.56
2022-08-28T13:04:24.283Z,99805.84
2022-08-28T13:07:06.782Z,99793.88
2022-08-28T13:09:35.613Z,99801.88
2022-08-28T13:12:03.952Z,99802.63
2022-08-28T13:14:52.392Z,99791.72
2022-08-28T13:17:47.446Z,99789.72
2022-08-28T13:20:31.168Z,99800.19
2022-08-28T13:23:00.033Z,99797.38
2022-08-28T13:25:34.641Z,99787.47
2022-08-28T13:28:11.137Z,99793.34
2022-08-28T13:30:38.844Z,99803.31
2022-08-28T13:33:26.001Z,99793.22
2022-08-28T13:35:54.990Z,99793.38
2022-08-28T13:38:25.212Z,99792.88
2022-08-28T13:41:02.415Z,99791.78
2022-08-28T13:43:45.855Z,99787.91
2022-08-28T13:46:13.659Z,99784.47
2022-08-28T13:48:41.499Z,99785.00
2022-08-28T13:51:16.383Z,99784.59
2022-08-28T13:53:50.516Z,99786.19
2022-08-28T13:56:20.132Z,99778.09
2022-08-28T13:58:58.125Z,99779.09
2022-08-28T14:01:46.409Z,99777.34
2022-08-28T14:04:14.928Z,99767.22
2022-08-28T14:06:44.168Z,99767.66
2022-08-28T14:09:15.307Z,99773.47
2022-08-28T14:11:49.744Z,99751.34
2022-08-28T14:14:17.600Z,99752.63
2022-08-28T14:16:45.821Z,99760.78
2022-08-28T14:19:13.568Z,99739.81
2022-08-28T14:21:41.860Z,99745.09
2022-08-28T14:24:09.490Z,99740.13
2022-08-28T14:26:37.680Z,99746.91
2022-08-28T14:29:08.516Z,99737.31
2022-08-28T14:31:37.505Z,99742.44
2022-08-28T14:34:05.692Z,99739.19
2022-08-28T14:36:33.914Z,99742.31
2022-08-28T14:39:06.280Z,99736.56
2022-08-28T14:41:35.613Z,99757.34
2022-08-28T14:44:04.425Z,99733.97
2022-08-28T14:46:35.955Z,99748.59
2022-08-28T14:49:09.045Z,99726.75
2022-08-28T14:51:41.162Z,99729.63
2022-08-28T14:54:11.848Z,99741.56
2022-08-28T14:56:40.995Z,99738.56
2022-08-28T14:59:13.418Z,99726.53
2022-08-28T15:01:45.001Z,99734.06
2022-08-28T15:04:17.859Z,99731.56
2022-08-28T15:06:46.192Z,99722.25
2022-08-28T15:09:14.587Z,99732.38
2022-08-28T15:11:43.947Z,99732.72
2022-08-28T15:14:12.375Z,99721.63
2022-08-28T15:16:45.532Z,99731.78
2022-08-28T15:19:17.819Z,99722.69
2022-08-28T15:21:50.094Z,99728.94
2022-08-28T15:24:25.857Z,99727.22
2022-08-28T15:26:54.037Z,99725.78
2022-08-28T15:29:21.621Z,99723.28
2022-08-28T15:31:53.515Z,99726.25
2022-08-28T15:34:26.914Z,99728.28
2022-08-28T15:36:56.495Z,99722.28
2022-08-28T15:39:45.330Z,99751.81
2022-08-28T15:42:14.136Z,99743.44
2022-08-28T15:44:42.178Z,99732.78
2022-08-28T15:47:10.468Z,99730.31
2022-08-28T15:49:44.596Z,99724.72
2022-08-28T15:52:19.185Z,99743.09
2022-08-28T15:54:48.303Z,99725.28
2022-08-28T15:57:16.174Z,99734.63
2022-08-28T15:59:49.709Z,99726.88
2022-08-28T16:02:22.092Z,99721.63
2022-08-28T16:04:50.258Z,99718.50
2022-08-28T16:07:20.819Z,99706.03
2022-08-28T16:09:49.204Z,99705.09
2022-08-28T16:12:17.366Z,99708.31
2022-08-28T16:14:44.969Z,99714.41
2022-08-28T16:17:12.598Z,99714.75
2022-08-28T16:19:41.173Z,99716.50
2022-08-28T16:22:10.264Z,99713.78
2022-08-28T16:24:38.543Z,99715.56
2022-08-28T16:27:07.874Z,99723.63
2022-08-28T16:29:38.691Z,99716.84
2022-08-28T16:32:07.482Z,99710.34
2022-08-28T16:34:36.868Z,99716.66
2022-08-28T16:37:04.673Z,99737.03
2022-08-28T16:39:32.694Z,99719.63
2022-08-28T16:42:00.243Z,99717.84
2022-08-28T16:44:27.957Z,99743.59
2022-08-28T16:46:56.450Z,99727.28
2022-08-28T16:49:24.782Z,99739.47
2022-08-28T16:51:52.883Z,99746.31
2022-08-28T16:54:21.809Z,99761.41
2022-08-28T16:56:49.452Z,99759.84
2022-08-28T16:59:18.267Z,99755.19
2022-08-28T17:01:53.101Z,99755.72
2022-08-28T17:04:22.137Z,99751.78
2022-08-28T17:06:50.246Z,99753.38
2022-08-28T17:09:21.042Z,99762.38
2022-08-28T17:11:52.093Z,99750.19
2022-08-28T17:14:21.792Z,99761.13
2022-08-28T17:16:50.534Z,99766.25
2022-08-28T17:19:19.450Z,99767.88
2022-08-28T17:22:06.164Z,99787.38
2022-08-28T17:24:33.824Z,99788.03
2022-08-28T17:27:05.365Z,99789.91
2022-08-28T17:29:36.352Z,99795.25
2022-08-28T17:32:05.817Z,99795.88
2022-08-28T17:34:33.630Z,99805.81
2022-08-28T17:37:01.786Z,99806.50
2022-08-28T17:39:29.817Z,99798.59
2022-08-28T17:41:57.678Z,99800.81
2022-08-28T17:44:25.633Z,99804.63
2022-08-28T17:46:53.501Z,99804.34
2022-08-28T17:49:22.394Z,99808.13
2022-08-28T17:51:51.119Z,99804.34
2022-08-28T17:54:22.634Z,99811.03
2022-08-28T17:56:52.709Z,99814.28
2022-08-28T17:59:21.549Z,99816.28
2022-08-28T18:01:49.958Z,99822.22
2022-08-28T18:04:24.189Z,99815.78
2022-08-28T18:06:54.710Z,99824.94
2022-08-28T18:09:24.170Z,99827.06
2022-08-28T18:11:53.298Z,99833.72
2022-08-28T18:14:21.761Z,99836.59
2022-08-28T18:16:49.411Z,99849.31
2022-08-28T18:19:17.038Z,99850.31
2022-08-28T18:21:45.100Z,99850.66
2022-08-28T18:24:13.158Z,99855.22
2022-08-28T18:26:43.438Z,99858.94
2022-08-28T18:29:12.542Z,99864.78
2022-08-28T18:31:41.582Z,99869.50
2022-08-28T18:34:10.074Z,99865.81
2022-08-28T18:36:43.561Z,99867.53
2022-08-28T18:39:11.909Z,99873.53
2022-08-28T18:41:43.735Z,99865.13
2022-08-28T18:44:15.216Z,99868.41
2022-08-28T18:46:44.143Z,99866.50
2022-08-28T18:49:12.511Z,99863.69
2022-08-28T18:51:43.475Z,99866.34
2022-08-28T18:54:18.003Z,99870.34
2022-08-28T18:56:50.310Z,99881.72
2022-08-28T18:59:19.089Z,99877.16
2022-08-28T19:01:47.020Z,99872.53
2022-08-28T19:04:14.734Z,99876.38
2022-08-28T19:06:42.508Z,99884.19
2022-08-28T19:09:20.606Z,99886.03
2022-08-28T19:11:48.678Z,99892.13
2022-08-28T19:14:16.603Z,99892.47
2022-08-28T19:16:45.093Z,99893.13
2022-08-28T19:19:12.696Z,99897.00
2022-08-28T19:21:40.496Z,99899.47
2022-08-28T19:24:08.128Z,99897.78
2022-08-28T19:26:37.031Z,99904.50
2022-08-28T19:29:04.863Z,99912.19
2022-08-28T19:31:33.917Z,99903.88
2022-08-28T19:34:02.520Z,99917.66
2022-08-28T19:36:30.653Z,99914.59
2022-08-28T19:38:58.606Z,99925.31
2022-08-28T19:41:27.505Z,99920.69
2022-08-28T19:43:55.496Z,99918.44
2022-08-28T19:46:23.016Z,99916.16
2022-08-28T19:48:53.062Z,99918.00
2022-08-28T19:51:24.138Z,99921.69
2022-08-28T19:53:58.730Z,99932.31
2022-08-28T19:56:30.264Z,99923.91
2022-08-28T19:59:00.490Z,99919.91
2022-08-28T20:01:31.771Z,99924.84
2022-08-28T20:04:00.453Z,99921.78
2022-08-28T20:06:31.130Z,99925.47
2022-08-28T20:08:59.280Z,99928.25
2022-08-28T20:11:30.165Z,99925.00
2022-08-28T20:14:04.282Z,99920.91
2022-08-28T20:16:39.478Z,99919.97
2022-08-28T20:19:10.378Z,99922.22
2022-08-28T20:21:41.799Z,99922.75
2022-08-28T20:24:18.151Z,99922.31
2022-08-28T20:26:46.775Z,99925.09
2022-08-28T20:29:21.616Z,99938.41
2022-08-28T20:31:49.472Z,99937.63
2022-08-28T20:34:19.151Z,99933.34
2022-08-28T20:36:47.746Z,99934.09
2022-08-28T20:39:15.667Z,99934.41
2022-08-28T20:41:44.813Z,99938.06
2022-08-28T20:44:16.931Z,99949.13
2022-08-28T20:46:47.104Z,99960.75
2022-08-28T20:49:22.097Z,99973.31
2022-08-28T20:51:53.664Z,99987.38
2022-08-28T20:54:23.762Z,99985.25
2022-08-28T20:56:52.242Z,99984.47
2022-08-28T20:59:22.245Z,99996.56
2022-08-28T21:01:51.831Z,99993.81
2022-08-28T21:04:21.020Z,100004.22
2022-08-28T21:06:48.772Z,100008.16
2022-08-28T21:09:17.600Z,100015.19
2022-08-28T21:11:45.682Z,100025.88
2022-08-28T21:14:15.006Z,100028.47
2022-08-28T21:16:44.065Z,100039.28
2022-08-28T21:19:16.323Z,100050.72
2022-08-28T21:21:46.420Z,100033.44
2022-08-28T21:24:16.768Z,100034.94
2022-08-28T21:26:50.607Z,100036.88
2022-08-28T21:29:22.048Z,100043.81
2022-08-28T21:31:52.215Z,100050.34
2022-08-28T21:34:21.642Z,100046.66
2022-08-28T21:36:50.715Z,100064.94
2022-08-28T21:39:20.701Z,100060.06
2022-08-28T21:41:49.474Z,100067.38
2022-08-28T21:44:17.707Z,100060.78
2022-08-28T21:46:45.880Z,100045.72
2022-08-28T21:49:13.873Z,100048.28
2022-08-28T21:51:41.642Z,100053.91
2022-08-28T21:54:09.237Z,100049.00
2022-08-28T21:56:37.136Z,100055.63
2022-08-28T21:59:04.629Z,100047.63
2022-08-28T22:01:32.187Z,100032.84
2022-08-28T22:04:00.125Z,100043.59
2022-08-28T22:06:27.738Z,100038.69
2022-08-28T22:08:56.558Z,100048.38
2022-08-28T22:11:25.429Z,100039.59
2022-08-28T22:13:57.281Z,100039.16
2022-08-28T22:16:26.816Z,100035.44
2022-08-28T22:18:55.068Z,100028.66
2022-08-28T22:21:45.185Z,100025.56
2022-08-28T22:24:14.097Z,100031.81
2022-08-28T22:26:43.782Z,100034.88
2022-08-28T22:29:12.084Z,100044.09
2022-08-28T22:31:45.508Z,100047.28
2022-08-28T22:34:14.978Z,100054.97
2022-08-28T22:36:42.588Z,100059.91
2022-08-28T22:39:10.223Z,100078.44
2022-08-28T22:41:38.697Z,100087.97
2022-08-28T22:44:07.260Z,100114.72
2022-08-28T22:46:36.111Z,100121.69
2022-08-28T22:49:04.304Z,100115.38
2022-08-28T22:51:34.876Z,100126.00
2022-08-28T22:54:02.974Z,100115.84
2022-08-28T22:56:30.534Z,100117.13
2022-08-28T22:58:58.286Z,100126.88
2022-08-28T23:01:26.559Z,100140.63
2022-08-28T23:03:54.231Z,100136.69
2022-08-28T23:06:21.968Z,100150.13
2022-08-28T23:08:49.939Z,100148.16
2022-08-28T23:11:17.553Z,100120.03
2022-08-28T23:13:45.494Z,100109.34
2022-08-28T23:16:13.396Z,100112.78
2022-08-28T23:19:06.552Z,100134.78
2022-08-28T23:21:28.703Z,100142.31
2022-08-28T23:23:56.621Z,100146.38
2022-08-28T23:26:25.507Z,100150.09
2022-08-28T23:28:53.306Z,100155.06
2022-08-28T23:31:21.005Z,100153.88
2022-08-28T23:33:49.283Z,100158.56
2022-08-28T23:36:18.855Z,100152.69
2022-08-28T23:38:46.319Z,100144.47
2022-08-28T23:41:14.387Z,100139.84
2022-08-28T23:43:42.521Z,100134.53
2022-08-28T23:46:13.470Z,100136.44
2022-08-28T23:48:41.423Z,100139.78
2022-08-28T23:51:11.400Z,100148.53
2022-08-28T23:53:42.539Z,100150.25
2022-08-28T23:56:10.634Z,100156.06
2022-08-28T23:58:43.211Z,100157.00
